Terminal Aerodrome Forecast
Issued by NWS

Home | Current Version | Previous Version | Text Only | Print | Product List | Glossary On
Versions: 1 2 3 4 5 6 7 8 9 10 11 12 13
000
FTUS43 KEAX 091100
TAFSTJ
TAF
KSTJ 091122Z 0912/1012 VRB03KT P6SM SKC
     FM091500 VRB05KT P6SM SCT040
     FM100200 12005KT P6SM BKN120
     FM100700 14005KT P6SM SCT080 BKN100=

USA.gov is the U.S. government's official web portal to all federal, state and local government web resources and services.